Time;durP1;ratioP1;P1;durP2;ratioP2;P2;SDS_P1;SDS_P2;PMS_P1;PMS_P2;Temp;Humidity;BMP_temperature;BMP_pressure;BME280_temperature;BME280_humidity;BME280_pressure;Samples;Min_cycle;Max_cycle;Signal;HPM_P1;HPM_P2
2022/04/07 00:00:35;;;;;;;7.25;1.48;;;;;;;9.11;90.17;99085.94;5069873;28;20115;-76
2022/04/07 00:03:01;;;;;;;4.25;1.45;;;;;;;9.11;89.61;99081.34;5052923;28;20029;-77
2022/04/07 00:05:26;;;;;;;7.47;1.77;;;;;;;9.06;89.77;99065.13;5060671;28;20025;-76
2022/04/07 00:07:51;;;;;;;3.83;1.77;;;;;;;9.07;89.04;99066.72;5052389;28;20040;-77
2022/04/07 00:10:17;;;;;;;8.70;2.40;;;;;;;9.06;89.20;99054.34;5034485;28;20021;-76
2022/04/07 00:12:43;;;;;;;6.85;1.63;;;;;;;9.07;89.35;99049.75;5035655;28;20091;-77
2022/04/07 00:15:09;;;;;;;7.03;1.67;;;;;;;9.02;89.24;99048.63;5064798;28;20040;-77
2022/04/07 00:17:35;;;;;;;9.60;1.77;;;;;;;9.05;89.05;99037.31;5072113;28;20376;-77
2022/04/07 00:20:01;;;;;;;5.65;1.80;;;;;;;9.04;88.71;99046.50;5072189;28;20028;-77
2022/04/07 00:22:26;;;;;;;8.73;1.73;;;;;;;9.06;88.41;99040.84;5065001;28;20033;-77
2022/04/07 00:24:52;;;;;;;7.47;1.75;;;;;;;9.04;88.85;99043.81;5060015;28;20343;-77
2022/04/07 00:27:17;;;;;;;10.00;2.13;;;;;;;9.04;88.94;99034.88;5052282;28;20389;-77
2022/04/07 00:29:43;;;;;;;6.03;2.03;;;;;;;9.07;89.18;99025.47;5033710;28;20400;-77
2022/04/07 00:32:08;;;;;;;9.20;1.92;;;;;;;9.09;88.29;99009.81;5039588;28;20031;-77
2022/04/07 00:34:33;;;;;;;8.50;2.22;;;;;;;9.06;89.02;99021.97;5071919;28;20124;-77
2022/04/07 00:36:59;;;;;;;8.35;2.00;;;;;;;9.05;89.72;99010.34;5057681;28;20036;-77
2022/04/07 00:39:24;;;;;;;9.60;2.30;;;;;;;9.07;89.10;99001.19;5034356;28;20487;-77
2022/04/07 00:41:50;;;;;;;6.15;2.03;;;;;;;9.03;89.19;98998.19;5053136;28;20035;-77
2022/04/07 00:44:16;;;;;;;7.90;1.95;;;;;;;8.99;90.16;98991.69;5052006;28;20025;-77
2022/04/07 00:46:42;;;;;;;5.75;2.05;;;;;;;8.97;90.45;98991.16;5051731;28;20040;-77
2022/04/07 00:49:08;;;;;;;9.35;2.38;;;;;;;9.00;89.28;98979.84;5066154;28;20108;-77
2022/04/07 00:51:35;;;;;;;9.10;2.33;;;;;;;8.99;90.32;98972.81;5072241;28;20029;-77
2022/04/07 00:54:00;;;;;;;8.52;2.58;;;;;;;8.97;90.37;98975.75;5053826;28;20029;-77
2022/04/07 00:56:26;;;;;;;8.07;2.20;;;;;;;8.98;90.34;98977.41;5051790;28;20029;-77
2022/04/07 00:58:53;;;;;;;8.35;2.47;;;;;;;8.95;90.49;98964.44;5052706;28;20457;-77
2022/04/07 01:01:22;;;;;;;8.65;2.22;;;;;;;8.98;90.49;98972.00;5049908;28;20111;-77
2022/04/07 01:03:49;;;;;;;7.15;2.42;;;;;;;8.98;90.96;98968.47;5053133;28;20128;-77
2022/04/07 01:06:14;;;;;;;9.52;2.65;;;;;;;8.97;90.62;98954.19;5052058;28;20028;-77
2022/04/07 01:08:39;;;;;;;8.82;2.55;;;;;;;8.92;91.83;98956.03;5066078;28;20033;-77
2022/04/07 01:11:05;;;;;;;8.52;2.50;;;;;;;8.84;92.77;98954.63;5071801;28;20111;-77
2022/04/07 01:13:46;;;;;;;7.63;2.35;;;;;;;8.83;92.31;98936.81;5052372;28;20032;-77
2022/04/07 01:16:13;;;;;;;8.15;2.17;;;;;;;8.82;92.38;98951.41;5072078;28;20033;-77
2022/04/07 01:18:38;;;;;;;9.50;2.55;;;;;;;8.83;92.78;98944.91;5071294;28;20387;-77
2022/04/07 01:21:04;;;;;;;8.52;2.40;;;;;;;8.85;92.30;98938.19;5053726;28;20024;-77
2022/04/07 01:23:34;;;;;;;4.32;2.15;;;;;;;8.87;91.17;98929.84;5056267;28;20029;-81
2022/04/07 01:26:00;;;;;;;8.10;2.53;;;;;;;8.83;91.78;98920.63;5050283;28;20033;-78
2022/04/07 01:28:25;;;;;;;9.82;2.85;;;;;;;8.80;91.86;98919.28;5051917;28;20178;-78
2022/04/07 01:30:50;;;;;;;9.38;2.25;;;;;;;8.82;91.59;98911.75;5033736;28;20041;-78
2022/04/07 01:33:17;;;;;;;9.40;2.40;;;;;;;8.80;91.55;98896.88;5064766;28;20032;-78
2022/04/07 01:35:42;;;;;;;11.20;3.03;;;;;;;8.84;91.19;98903.38;5071359;28;20395;-78
2022/04/07 01:38:08;;;;;;;8.52;2.60;;;;;;;8.86;90.03;98887.75;5062569;28;20058;-79
2022/04/07 01:40:35;;;;;;;6.63;2.00;;;;;;;8.86;90.19;98885.03;5067077;28;20112;-78
2022/04/07 01:43:04;;;;;;;9.55;2.22;;;;;;;8.90;89.55;98883.47;5073428;28;20479;-78
2022/04/07 01:45:31;;;;;;;8.48;2.60;;;;;;;8.91;90.21;98870.78;5046518;28;20041;-79
2022/04/07 01:47:57;;;;;;;8.13;2.50;;;;;;;8.84;90.68;98863.72;5069393;28;20024;-78
2022/04/07 01:50:25;;;;;;;11.77;2.58;;;;;;;8.93;89.83;98864.06;5077102;28;20154;-78
2022/04/07 01:52:51;;;;;;;10.65;2.72;;;;;;;8.90;89.45;98864.56;5077049;28;20020;-78
2022/04/07 01:55:17;;;;;;;8.25;2.40;;;;;;;8.92;90.09;98853.53;5077177;28;20024;-78
2022/04/07 01:57:44;;;;;;;12.38;2.63;;;;;;;8.92;90.06;98856.22;5076981;28;20031;-79
2022/04/07 02:00:10;;;;;;;7.75;2.28;;;;;;;8.93;89.89;98861.34;5095282;28;20107;-78
2022/04/07 02:02:35;;;;;;;11.30;2.70;;;;;;;8.92;90.42;98851.63;5064742;28;20112;-78
2022/04/07 02:05:08;;;;;;;8.68;2.60;;;;;;;8.92;90.44;98843.53;5045603;28;20112;-79
2022/04/07 02:07:34;;;;;;;9.52;2.45;;;;;;;8.88;91.59;98842.47;5036934;28;20086;-79
2022/04/07 02:10:00;;;;;;;8.73;2.65;;;;;;;8.93;90.61;98841.66;5064640;28;20044;-79
2022/04/07 02:12:27;;;;;;;10.27;2.50;;;;;;;8.93;90.93;98855.16;5054898;28;20486;-79
2022/04/07 02:14:53;;;;;;;15.85;3.03;;;;;;;8.92;90.80;98848.94;5073872;28;20037;-79
2022/04/07 02:17:22;;;;;;;13.68;2.45;;;;;;;8.92;90.90;98842.75;5056405;28;20482;-79
2022/04/07 02:19:55;;;;;;;7.47;2.30;;;;;;;8.85;91.03;98824.91;5074456;28;20029;-82
2022/04/07 02:22:21;;;;;;;12.50;2.63;;;;;;;8.87;90.24;98828.16;5055969;28;20064;-79
2022/04/07 02:24:49;;;;;;;11.00;2.40;;;;;;;8.89;90.06;98816.28;5055887;28;20113;-79
2022/04/07 02:27:15;;;;;;;13.32;2.90;;;;;;;8.93;89.73;98818.19;5065810;28;20028;-77
2022/04/07 02:33:00;;;;;;;12.50;2.58;;;;;;;8.98;89.21;98801.22;5040972;28;20085;-80
2022/04/07 02:35:25;;;;;;;9.93;2.63;;;;;;;8.96;88.97;98812.28;5056188;28;20115;-79
2022/04/07 02:37:50;;;;;;;12.10;2.50;;;;;;;9.04;88.25;98819.88;5055587;28;20036;-79
2022/04/07 02:40:19;;;;;;;15.88;2.78;;;;;;;9.03;88.37;98802.06;5071674;28;20056;-79
2022/04/07 02:42:44;;;;;;;14.77;3.28;;;;;;;9.08;87.99;98797.75;5058992;28;20047;-79
2022/04/07 02:45:09;;;;;;;13.02;2.70;;;;;;;9.10;87.93;98811.78;5053903;28;20029;-79
2022/04/07 02:47:39;;;;;;;11.88;2.55;;;;;;;9.07;88.02;98793.41;5049536;28;20460;-79
2022/04/07 02:50:05;;;;;;;9.38;2.30;;;;;;;9.09;87.75;98800.19;5056038;28;20052;-79
2022/04/07 02:52:32;;;;;;;10.38;2.58;;;;;;;9.10;87.69;98779.41;5036427;28;20093;-79
2022/04/07 02:54:58;;;;;;;9.25;2.58;;;;;;;9.18;87.36;98760.00;5036974;28;20037;-79
2022/04/07 02:57:24;;;;;;;9.30;3.03;;;;;;;9.11;87.08;98765.63;5046211;28;20150;-79
2022/04/07 02:59:49;;;;;;;13.38;2.78;;;;;;;9.15;86.87;98757.81;5055464;28;20033;-79
2022/04/07 03:02:15;;;;;;;11.57;3.17;;;;;;;9.15;86.26;98760.50;5069139;28;20102;-79
2022/04/07 03:04:40;;;;;;;9.25;2.55;;;;;;;9.20;86.41;98752.44;5056183;28;20044;-79
2022/04/07 03:07:05;;;;;;;13.02;2.53;;;;;;;9.18;85.45;98744.63;5053511;28;20033;-79
2022/04/07 03:09:31;;;;;;;9.48;2.45;;;;;;;9.27;85.55;98736.81;5035720;28;20029;-79
2022/04/07 03:11:56;;;;;;;10.80;2.60;;;;;;;9.29;85.44;98737.34;5054257;28;20155;-78
2022/04/07 03:14:22;;;;;;;10.25;2.45;;;;;;;9.28;85.20;98721.41;5054279;28;20029;-79
2022/04/07 03:16:48;;;;;;;11.73;3.70;;;;;;;9.27;85.77;98725.19;5073405;28;20043;-79
2022/04/07 03:19:15;;;;;;;12.75;2.65;;;;;;;9.28;85.49;98716.00;5072850;28;20029;-79
2022/04/07 03:21:41;;;;;;;12.07;2.60;;;;;;;9.26;85.62;98702.00;5055525;28;20093;-79
2022/04/07 03:24:06;;;;;;;12.13;3.13;;;;;;;9.33;84.86;98703.34;5045734;28;20464;-79
2022/04/07 03:26:31;;;;;;;15.50;2.72;;;;;;;9.28;85.44;98689.03;5054952;28;20033;-79
2022/04/07 03:28:57;;;;;;;13.30;3.17;;;;;;;9.26;84.76;98691.19;5059053;28;20489;-79
2022/04/07 03:31:22;;;;;;;12.65;2.85;;;;;;;9.30;85.76;98709.28;5054400;28;20040;-78
2022/04/07 03:33:47;;;;;;;13.07;3.00;;;;;;;9.35;84.29;98698.47;5039701;28;20029;-79
2022/04/07 03:36:13;;;;;;;9.80;3.03;;;;;;;9.39;83.36;98680.66;5052863;28;20037;-79
2022/04/07 03:38:38;;;;;;;10.15;2.30;;;;;;;9.42;83.06;98682.03;5047088;28;20099;-79
2022/04/07 03:41:05;;;;;;;10.52;2.60;;;;;;;9.39;83.04;98690.63;5052997;28;20111;-79
2022/04/07 03:43:31;;;;;;;9.93;2.20;;;;;;;9.35;83.83;98679.56;5071969;28;20021;-79
2022/04/07 03:45:56;;;;;;;10.73;3.05;;;;;;;9.35;83.89;98668.78;5054475;28;20032;-79
2022/04/07 03:48:22;;;;;;;10.07;2.28;;;;;;;9.34;83.83;98663.66;5054774;28;20090;-79
2022/04/07 03:50:47;;;;;;;12.85;3.08;;;;;;;9.37;83.53;98672.00;5054772;28;20029;-79
2022/04/07 03:53:12;;;;;;;14.40;2.78;;;;;;;9.35;83.42;98667.97;5063889;28;20033;-79
2022/04/07 03:55:38;;;;;;;9.90;2.33;;;;;;;9.37;83.59;98650.41;5037580;28;20035;-78
2022/04/07 03:58:03;;;;;;;6.93;2.08;;;;;;;9.35;83.70;98652.59;5054225;28;20036;-79
2022/04/07 04:00:29;;;;;;;10.63;2.70;;;;;;;9.37;83.61;98647.72;5061191;28;20524;-79
2022/04/07 04:02:54;;;;;;;13.30;2.88;;;;;;;9.35;84.41;98641.78;5035539;28;20112;-79
2022/04/07 04:05:20;;;;;;;7.70;2.00;;;;;;;9.36;83.32;98611.03;5048349;28;20140;-79
2022/04/07 04:07:45;;;;;;;8.52;2.55;;;;;;;9.34;83.92;98605.06;5043190;28;20590;-79
2022/04/07 04:10:10;;;;;;;8.93;2.42;;;;;;;9.39;83.02;98607.78;5052255;28;20468;-79
2022/04/07 04:12:36;;;;;;;9.27;2.60;;;;;;;9.33;83.45;98595.38;5049729;28;20435;-79
2022/04/07 04:15:02;;;;;;;9.82;2.20;;;;;;;9.33;83.66;98581.06;5034472;28;20029;-79
2022/04/07 04:17:31;;;;;;;9.07;2.30;;;;;;;9.31;83.99;98573.22;5052265;28;20021;-79
2022/04/07 04:19:56;;;;;;;6.65;2.30;;;;;;;9.32;83.79;98558.66;5034628;28;20025;-79
2022/04/07 04:22:21;;;;;;;10.10;2.33;;;;;;;9.32;84.43;98539.78;5035005;28;20033;-78
2022/04/07 04:24:48;;;;;;;3.40;1.70;;;;;;;9.32;84.49;98528.97;5068014;28;20376;-79
2022/04/07 04:27:13;;;;;;;4.57;1.75;;;;;;;9.36;83.45;98535.44;5058871;28;20082;-79
2022/04/07 04:29:40;;;;;;;9.25;2.10;;;;;;;9.39;83.49;98534.06;5068304;28;20036;-79
2022/04/07 04:32:06;;;;;;;5.38;1.92;;;;;;;9.36;83.57;98530.06;5052581;28;20590;-79
2022/04/07 04:34:31;;;;;;;4.78;1.50;;;;;;;9.39;83.21;98524.09;5053340;28;20119;-79
2022/04/07 04:36:56;;;;;;;7.60;1.88;;;;;;;9.40;82.12;98524.91;5050563;28;20032;-79
2022/04/07 04:39:21;;;;;;;7.15;1.85;;;;;;;9.48;82.59;98512.72;5034466;28;20029;-79
2022/04/07 04:41:47;;;;;;;4.65;1.70;;;;;;;9.45;82.77;98515.97;5035475;28;20464;-79
2022/04/07 04:44:12;;;;;;;5.75;1.90;;;;;;;9.42;83.41;98505.72;5034252;28;20116;-79
2022/04/07 04:46:37;;;;;;;3.63;1.30;;;;;;;9.51;83.63;98514.88;5035509;28;20041;-79
2022/04/07 04:49:03;;;;;;;5.07;1.90;;;;;;;9.42;85.24;98511.13;5048359;28;20033;-79
2022/04/07 04:51:28;;;;;;;4.60;1.70;;;;;;;9.40;85.05;98501.44;5072259;28;20435;-79
2022/04/07 04:53:54;;;;;;;2.92;1.52;;;;;;;9.43;85.59;98474.97;5050240;28;20033;-79
2022/04/07 04:56:20;;;;;;;3.17;1.30;;;;;;;9.38;87.01;98483.91;5052127;28;20154;-79
2022/04/07 04:58:45;;;;;;;4.25;1.58;;;;;;;9.37;87.21;98479.56;5033935;28;20112;-79
2022/04/07 05:01:10;;;;;;;6.05;1.50;;;;;;;9.23;88.54;98473.94;5033000;28;20456;-79
2022/04/07 05:03:36;;;;;;;4.15;1.30;;;;;;;9.19;88.88;98449.41;5046893;28;20373;-78
2022/04/07 05:06:02;;;;;;;3.92;1.25;;;;;;;9.16;89.06;98439.19;5051520;28;20021;-78
2022/04/07 05:08:27;;;;;;;5.57;1.30;;;;;;;9.13;89.33;98423.50;5071049;28;20047;-78
2022/04/07 05:10:53;;;;;;;4.15;1.30;;;;;;;9.13;89.50;98436.19;5068390;28;20036;-79
2022/04/07 05:13:18;;;;;;;2.70;1.35;;;;;;;9.14;88.88;98429.72;5034094;28;20036;-79
2022/04/07 05:15:43;;;;;;;3.97;1.50;;;;;;;9.12;88.47;98421.09;5073458;28;20465;-79
2022/04/07 05:18:09;;;;;;;4.55;1.50;;;;;;;9.11;88.85;98438.38;5041312;28;20028;-79
2022/04/07 05:20:37;;;;;;;4.22;1.95;;;;;;;9.11;88.65;98419.50;5065556;28;20468;-79
2022/04/07 05:23:03;;;;;;;3.25;1.50;;;;;;;9.09;88.94;98405.44;5056471;28;20042;-78
2022/04/07 05:25:28;;;;;;;2.92;1.33;;;;;;;9.12;89.12;98399.50;5047813;28;20033;-79
2022/04/07 05:27:53;;;;;;;3.03;1.40;;;;;;;9.12;89.51;98397.63;5055614;28;20084;-79
2022/04/07 05:30:18;;;;;;;2.72;1.40;;;;;;;9.07;89.43;98381.44;5055574;28;20029;-79
2022/04/07 05:32:45;;;;;;;4.05;1.85;;;;;;;9.02;90.45;98390.38;5065777;28;20032;-79
2022/04/07 05:35:15;;;;;;;5.07;2.05;;;;;;;9.02;91.50;98373.38;5042270;28;20384;-79
2022/04/07 05:37:44;;;;;;;4.88;1.80;;;;;;;8.97;91.48;98379.59;5056864;28;20086;-79
2022/04/07 05:40:11;;;;;;;5.60;2.25;;;;;;;8.89;93.36;98380.16;5057217;28;20036;-79
2022/04/07 05:42:36;;;;;;;5.85;2.20;;;;;;;8.83;94.68;98365.06;5067334;28;20391;-79
2022/04/07 05:45:03;;;;;;;6.80;2.60;;;;;;;8.80;95.16;98349.44;5054797;28;20037;-79
2022/04/07 05:47:28;;;;;;;4.93;2.17;;;;;;;8.73;95.05;98346.25;5037494;28;20036;-79
2022/04/07 05:49:55;;;;;;;6.70;2.50;;;;;;;8.67;95.92;98335.47;5055073;28;20029;-79
2022/04/07 05:52:20;;;;;;;3.95;2.42;;;;;;;8.62;96.36;98330.09;5037653;28;20029;-79
2022/04/07 05:54:45;;;;;;;6.20;2.60;;;;;;;8.57;97.25;98308.53;5055226;28;20024;-79
2022/04/07 05:57:10;;;;;;;7.82;2.80;;;;;;;8.57;96.96;98316.63;5037002;28;20434;-79
2022/04/07 05:59:36;;;;;;;6.03;2.65;;;;;;;8.56;97.25;98296.16;5055130;28;20028;-79
2022/04/07 06:02:01;;;;;;;4.85;2.70;;;;;;;8.61;96.38;98298.81;5036464;28;20458;-79
2022/04/07 06:04:26;;;;;;;7.20;2.42;;;;;;;8.62;96.29;98284.28;5056547;28;20044;-79
2022/04/07 06:06:52;;;;;;;9.35;3.00;;;;;;;8.56;96.63;98292.63;5056963;28;20508;-79
2022/04/07 06:09:17;;;;;;;9.32;3.10;;;;;;;8.61;96.58;98293.44;5036732;28;20084;-79
2022/04/07 06:11:42;;;;;;;6.38;3.03;;;;;;;8.58;96.75;98282.41;5037678;28;20533;-79
2022/04/07 06:14:08;;;;;;;7.28;2.88;;;;;;;8.54;96.63;98265.16;5072023;28;20388;-79
2022/04/07 06:16:33;;;;;;;9.05;3.30;;;;;;;8.51;96.68;98267.34;5056078;28;20031;-79
2022/04/07 06:18:58;;;;;;;10.55;3.10;;;;;;;8.50;96.95;98259.53;5073868;28;20043;-79
2022/04/07 06:21:24;;;;;;;8.48;3.05;;;;;;;8.50;96.99;98254.94;5056038;28;20036;-79
2022/04/07 06:23:50;;;;;;;8.18;2.97;;;;;;;8.48;96.13;98250.88;5074110;28;20475;-79
2022/04/07 06:26:17;;;;;;;6.82;2.92;;;;;;;8.47;96.73;98236.63;5055245;28;20036;-79
2022/04/07 06:28:42;;;;;;;7.13;2.65;;;;;;;8.48;96.49;98240.09;5073240;28;20044;-79
2022/04/07 06:31:08;;;;;;;8.52;2.60;;;;;;;8.48;97.01;98237.41;5043275;28;20127;-79
2022/04/07 06:33:33;;;;;;;8.18;2.85;;;;;;;8.50;96.65;98227.19;5036371;28;20036;-79
2022/04/07 06:35:59;;;;;;;7.97;2.53;;;;;;;8.49;96.99;98218.25;5049992;28;20040;-79
2022/04/07 06:38:24;;;;;;;7.30;2.50;;;;;;;8.48;96.97;98215.84;5064816;28;20025;-79
2022/04/07 06:40:49;;;;;;;6.25;2.17;;;;;;;8.48;96.59;98196.97;5072657;28;20033;-79
2022/04/07 06:43:14;;;;;;;7.20;2.00;;;;;;;8.46;97.53;98193.75;5036018;28;20102;-79
2022/04/07 06:45:40;;;;;;;7.28;2.25;;;;;;;8.44;97.87;98190.53;5046761;28;20060;-79
2022/04/07 06:48:05;;;;;;;9.02;2.00;;;;;;;8.43;97.68;98173.53;5041254;28;20131;-79
2022/04/07 06:50:31;;;;;;;7.60;1.90;;;;;;;8.43;97.77;98172.72;5054129;28;20431;-79
2022/04/07 06:52:57;;;;;;;5.28;2.03;;;;;;;8.41;98.15;98166.78;5033701;28;20060;-79
2022/04/07 06:55:24;;;;;;;5.93;2.22;;;;;;;8.39;98.30;98155.50;5065470;28;20586;-80
2022/04/07 06:57:53;;;;;;;7.60;2.13;;;;;;;8.40;99.07;98146.34;5052305;28;20488;-81
2022/04/07 07:00:20;;;;;;;8.95;2.15;;;;;;;8.39;98.59;98133.94;5035176;28;20029;-79
2022/04/07 07:02:53;;;;;;;9.48;2.30;;;;;;;8.39;98.78;98132.03;5054331;28;20024;-80
2022/04/07 07:05:19;;;;;;;7.15;1.95;;;;;;;8.36;99.32;98107.53;5061474;28;20498;-81
2022/04/07 07:07:45;;;;;;;7.70;1.90;;;;;;;8.39;99.28;98113.19;5055166;28;20031;-80
2022/04/07 07:10:11;;;;;;;8.10;1.90;;;;;;;8.36;99.43;98102.16;5066268;28;20024;-81
2022/04/07 07:12:36;;;;;;;6.10;1.67;;;;;;;8.36;99.71;98091.38;5052847;28;20107;-80
2022/04/07 07:15:03;;;;;;;7.25;1.60;;;;;;;8.39;99.44;98085.44;5044625;28;20025;-80
2022/04/07 07:17:33;;;;;;;5.15;1.90;;;;;;;8.38;99.73;98073.88;5057230;28;20090;-80
2022/04/07 07:20:04;;;;;;;8.55;1.70;;;;;;;8.38;99.54;98068.47;5035570;28;20473;-81
2022/04/07 07:22:30;;;;;;;8.57;1.90;;;;;;;8.36;100.00;98049.06;5054178;28;20043;-80
2022/04/07 07:24:56;;;;;;;5.15;1.70;;;;;;;8.34;100.00;98049.34;5036199;28;20033;-79
2022/04/07 07:27:21;;;;;;;5.25;1.75;;;;;;;8.39;100.00;98036.94;5053405;28;20112;-80
2022/04/07 07:29:46;;;;;;;4.82;1.52;;;;;;;8.42;100.00;98026.38;5069918;28;20048;-79
2022/04/07 07:32:12;;;;;;;8.05;2.20;;;;;;;8.44;100.00;98018.06;5053716;28;20036;-80
2022/04/07 07:34:37;;;;;;;7.85;2.10;;;;;;;8.46;100.00;98015.91;5073601;28;20044;-81
2022/04/07 07:37:02;;;;;;;5.10;1.98;;;;;;;8.52;100.00;98017.47;5043580;28;20488;-77
2022/04/07 07:39:28;;;;;;;4.70;1.80;;;;;;;8.52;100.00;97996.69;5035489;28;20029;-77
2022/04/07 07:41:53;;;;;;;6.03;1.92;;;;;;;8.52;100.00;98002.09;5064901;28;20021;-81
2022/04/07 07:44:18;;;;;;;3.90;1.90;;;;;;;8.55;100.00;98010.72;5034784;28;20378;-81
2022/04/07 07:46:43;;;;;;;6.20;2.15;;;;;;;8.57;100.00;98059.75;5042800;28;20041;-81
2022/04/07 07:49:09;;;;;;;7.50;1.42;;;;;;;8.40;96.79;98221.78;5037873;28;20040;-81
2022/04/07 07:51:34;;;;;;;5.97;1.30;;;;;;;7.53;96.39;98204.72;5072712;28;20173;-80
2022/04/07 07:53:59;;;;;;;5.97;0.90;;;;;;;7.00;97.55;98213.03;5072665;28;20036;-81
2022/04/07 07:56:25;;;;;;;3.92;1.02;;;;;;;6.59;98.52;98201.38;5067870;28;20024;-80
2022/04/07 07:58:50;;;;;;;3.42;1.10;;;;;;;6.32;100.00;98188.91;5050399;28;20130;-82
2022/04/07 08:01:15;;;;;;;4.55;1.10;;;;;;;6.31;98.99;98181.91;5044064;28;20507;-82
2022/04/07 08:03:40;;;;;;;3.05;1.15;;;;;;;6.18;99.85;98186.72;5035735;28;20045;-83
2022/04/07 08:06:06;;;;;;;5.85;1.50;;;;;;;6.09;100.00;98156.06;5062610;28;20036;-82
2022/04/07 08:08:32;;;;;;;4.85;1.20;;;;;;;6.10;100.00;98148.81;5034916;28;20055;-81
2022/04/07 08:10:57;;;;;;;6.10;1.42;;;;;;;6.15;100.00;98171.13;5035932;28;20036;-80
2022/04/07 08:13:23;;;;;;;6.30;1.60;;;;;;;6.13;100.00;98157.16;5070042;28;20058;-81
2022/04/07 08:15:49;;;;;;;4.53;1.05;;;;;;;6.15;100.00;98159.59;5055612;28;20040;-79
2022/04/07 08:18:14;;;;;;;4.05;1.48;;;;;;;6.19;100.00;98156.09;5050416;28;20036;-83
2022/04/07 08:20:40;;;;;;;3.60;1.35;;;;;;;6.26;100.00;98150.47;5053549;28;20025;-80
2022/04/07 08:23:05;;;;;;;3.10;1.00;;;;;;;6.36;100.00;98155.09;5054192;28;20039;-81
2022/04/07 08:25:31;;;;;;;4.03;1.33;;;;;;;6.44;100.00;98157.25;5054158;28;20025;-86
2022/04/07 08:27:56;;;;;;;4.60;1.20;;;;;;;6.56;100.00;98159.72;5055036;28;20033;-80
2022/04/07 08:30:21;;;;;;;2.53;1.13;;;;;;;6.61;100.00;98145.47;5072130;28;20140;-81
2022/04/07 08:32:46;;;;;;;1.98;1.17;;;;;;;6.66;100.00;98142.81;5053899;28;20032;-83
2022/04/07 08:35:12;;;;;;;3.92;1.00;;;;;;;6.74;100.00;98145.78;5034140;28;20033;-76
2022/04/07 08:37:37;;;;;;;4.65;1.17;;;;;;;6.81;100.00;98158.97;5035455;28;20052;-81
2022/04/07 08:40:06;;;;;;;4.10;1.20;;;;;;;6.92;100.00;98157.91;5035911;28;20033;-82
2022/04/07 08:42:36;;;;;;;5.63;1.40;;;;;;;6.99;100.00;98146.06;5037515;28;20048;-79
2022/04/07 08:45:02;;;;;;;5.90;1.38;;;;;;;7.02;100.00;98142.84;5032475;28;20056;-79
2022/04/07 08:47:28;;;;;;;3.95;1.20;;;;;;;7.10;100.00;98143.13;5058692;28;20392;-79
2022/04/07 08:49:54;;;;;;;6.28;1.50;;;;;;;7.22;100.00;98134.00;5056108;28;20037;-82
2022/04/07 08:52:19;;;;;;;8.75;2.42;;;;;;;7.32;100.00;98138.53;5058869;28;20097;-81
2022/04/07 08:54:45;;;;;;;5.90;2.53;;;;;;;7.42;100.00;98141.22;5074598;28;20028;-81
2022/04/07 08:57:10;;;;;;;12.00;1.98;;;;;;;7.54;100.00;98146.34;5075587;28;20032;-77
2022/04/07 08:59:36;;;;;;;6.00;2.10;;;;;;;7.67;100.00;98150.34;5058064;28;20032;-79
2022/04/07 09:02:02;;;;;;;7.75;2.10;;;;;;;7.77;100.00;98147.63;5054858;28;20033;-81
2022/04/07 09:04:35;;;;;;;4.95;1.45;;;;;;;7.89;100.00;98137.34;5060095;28;20045;-78
2022/04/07 09:07:01;;;;;;;5.90;1.90;;;;;;;8.00;100.00;98146.22;5061815;28;20028;-81
2022/04/07 09:09:31;;;;;;;5.47;1.83;;;;;;;8.14;99.96;98144.56;5051903;28;20043;-79
2022/04/07 09:11:56;;;;;;;7.88;2.03;;;;;;;8.18;99.78;98139.41;5057110;28;20029;-75
2022/04/07 09:14:21;;;;;;;5.60;1.50;;;;;;;8.23;98.72;98138.56;5038612;28;20040;-75
2022/04/07 09:16:53;;;;;;;3.13;2.13;;;;;;;8.29;100.00;98146.38;5066223;28;20040;-80
2022/04/07 09:19:21;;;;;;;7.50;2.35;;;;;;;8.34;100.00;98159.81;5060081;28;20033;-81
2022/04/07 09:21:46;;;;;;;4.25;2.20;;;;;;;8.44;100.00;98142.00;5049753;28;20040;-80
2022/04/07 09:24:11;;;;;;;4.88;2.00;;;;;;;8.53;100.00;98151.16;5078309;28;20527;-75
2022/04/07 09:26:41;;;;;;;5.55;2.40;;;;;;;8.63;100.00;98144.88;5077834;28;20028;-79
2022/04/07 09:29:11;;;;;;;9.80;2.67;;;;;;;8.73;99.24;98149.44;5078556;28;20036;-78
2022/04/07 09:31:50;;;;;;;8.48;3.33;;;;;;;8.81;98.72;98152.31;5069170;28;20056;-81
2022/04/07 09:34:15;;;;;;;5.53;3.15;;;;;;;8.95;98.73;98159.78;5068457;28;20535;-81
2022/04/07 09:36:40;;;;;;;5.22;3.42;;;;;;;9.03;99.51;98161.91;5077855;28;20111;-77
2022/04/07 09:39:05;;;;;;;6.13;2.95;;;;;;;9.20;96.67;98167.69;5065042;28;20095;-77
2022/04/07 09:41:31;;;;;;;5.43;3.28;;;;;;;9.23;95.06;98163.63;5055968;28;20029;-76
2022/04/07 09:44:01;;;;;;;5.13;2.75;;;;;;;9.32;95.26;98177.31;5037493;28;20021;-77
2022/04/07 09:46:38;;;;;;;7.55;2.20;;;;;;;9.39;90.52;98177.78;5038330;28;20068;-76
2022/04/07 09:49:07;;;;;;;3.45;2.10;;;;;;;9.39;88.71;98167.81;5070949;28;20025;-76
2022/04/07 09:51:48;;;;;;;8.80;3.33;;;;;;;9.38;88.61;98173.50;5058813;28;20052;-75
2022/04/07 09:54:16;;;;;;;3.67;1.90;;;;;;;9.51;84.26;98158.53;5054957;28;20029;-75
2022/04/07 09:56:43;;;;;;;8.60;2.10;;;;;;;9.50;82.69;98167.72;5054971;28;20055;-73
2022/04/07 09:59:08;;;;;;;6.03;2.35;;;;;;;9.55;82.73;98171.16;5055116;28;20029;-76
2022/04/07 10:01:38;;;;;;;4.82;1.90;;;;;;;9.51;81.90;98153.94;5033452;28;20047;-76
2022/04/07 10:04:05;;;;;;;6.68;1.80;;;;;;;9.43;80.44;98172.66;5054912;28;20132;-80
2022/04/07 10:06:40;;;;;;;8.18;2.08;;;;;;;9.44;80.53;98175.06;5038192;28;20028;-83
2022/04/07 10:11:56;;;;;;;6.13;2.20;;;;;;;9.42;80.63;98181.81;5012503;28;20136;-74
2022/04/07 10:14:21;;;;;;;4.30;1.85;;;;;;;9.39;77.78;98158.91;5048069;28;20119;-81
2022/04/07 10:16:47;;;;;;;8.57;2.13;;;;;;;9.50;77.50;98176.63;5037129;28;20066;-81
2022/04/07 10:19:21;;;;;;;5.10;1.52;;;;;;;9.72;72.54;98176.16;5056553;28;20025;-80
2022/04/07 10:21:53;;;;;;;4.68;1.33;;;;;;;9.91;70.22;98197.84;5057356;28;20048;-80
2022/04/07 10:24:37;;;;;;;5.80;1.60;;;;;;;10.01;72.48;98188.00;5056489;28;20039;-79
2022/04/07 10:27:08;;;;;;;5.45;1.33;;;;;;;10.17;70.96;98194.06;5056793;28;20024;-77
2022/04/07 10:29:33;;;;;;;5.95;1.50;;;;;;;10.24;71.72;98189.13;5051279;28;20484;-77
2022/04/07 10:32:10;;;;;;;6.18;1.83;;;;;;;10.39;73.09;98185.47;5054218;28;20159;-79
2022/04/07 10:34:37;;;;;;;9.48;1.77;;;;;;;10.52;69.86;98190.16;5036365;28;20029;-79
2022/04/07 10:37:05;;;;;;;8.60;1.85;;;;;;;10.60;68.24;98194.13;5054399;28;20078;-78
2022/04/07 10:39:39;;;;;;;8.48;1.95;;;;;;;10.54;70.04;98216.94;5042299;28;20116;-79
2022/04/07 10:42:06;;;;;;;7.53;2.13;;;;;;;10.60;71.64;98219.25;5055769;28;20032;-80
2022/04/07 10:44:33;;;;;;;8.35;1.85;;;;;;;10.44;69.34;98191.59;5074156;28;20478;-80
2022/04/07 10:47:05;;;;;;;8.55;1.88;;;;;;;10.39;68.05;98220.63;5073974;28;20059;-80
2022/04/07 10:49:32;;;;;;;8.70;1.80;;;;;;;10.33;67.07;98232.56;5067198;28;20123;-79
2022/04/07 10:51:59;;;;;;;6.80;2.05;;;;;;;10.19;67.06;98237.81;5053895;28;20025;-72
2022/04/07 10:54:28;;;;;;;14.50;2.40;;;;;;;10.09;67.74;98254.94;5054912;28;20028;-81
2022/04/07 10:56:56;;;;;;;9.63;2.00;;;;;;;10.21;67.32;98252.66;5056023;28;20060;-82
2022/04/07 10:59:24;;;;;;;7.45;1.80;;;;;;;10.41;66.74;98245.44;5055535;28;20025;-81
2022/04/07 11:02:02;;;;;;;7.78;2.20;;;;;;;10.51;67.02;98258.03;5053699;28;20044;-82
2022/04/07 11:04:38;;;;;;;8.27;1.95;;;;;;;10.52;64.82;98246.13;5038133;28;20052;-74
2022/04/07 11:07:15;;;;;;;8.57;1.65;;;;;;;10.44;63.46;98248.38;5054915;28;20025;-81
2022/04/07 11:09:47;;;;;;;10.15;2.00;;;;;;;10.39;64.08;98270.06;5061885;28;20036;-79
2022/04/07 11:12:32;;;;;;;10.95;2.28;;;;;;;10.49;63.68;98249.41;5053336;28;20069;-79
2022/04/07 11:15:03;;;;;;;9.70;2.20;;;;;;;10.53;64.76;98286.41;5054219;28;20036;-79
2022/04/07 11:17:48;;;;;;;8.57;2.17;;;;;;;10.70;62.12;98272.41;5036056;28;20033;-79
2022/04/07 11:20:26;;;;;;;8.85;2.17;;;;;;;10.70;63.59;98285.13;5054319;28;20036;-81
2022/04/07 11:22:54;;;;;;;10.55;2.47;;;;;;;10.75;63.48;98294.00;5043039;28;20029;-79
2022/04/07 11:25:22;;;;;;;8.88;1.88;;;;;;;10.78;62.32;98293.44;5056089;28;20511;-80
2022/04/07 11:28:04;;;;;;;8.30;2.17;;;;;;;10.80;64.09;98285.03;5074535;28;20379;-79
2022/04/07 11:30:54;;;;;;;8.13;2.00;;;;;;;10.86;61.93;98321.75;5055538;28;20383;-81
2022/04/07 11:33:32;;;;;;;8.77;2.00;;;;;;;10.71;60.77;98324.63;5054615;28;20120;-83
2022/04/07 11:36:00;;;;;;;12.60;2.25;;;;;;;10.62;60.32;98344.16;5053317;28;20114;-79
2022/04/07 11:38:29;;;;;;;10.13;2.63;;;;;;;10.60;60.76;98323.94;5054139;28;20033;-83
2022/04/07 11:41:19;;;;;;;13.02;2.65;;;;;;;10.47;61.93;98330.81;5053977;28;20032;-83
2022/04/07 11:47:07;;;;;;;13.30;2.47;;;;;;;10.33;61.13;98330.69;5045747;28;20037;-83